createdAt,value
2022-11-20T00:00:00.552Z,13.90
2022-11-20T00:02:31.293Z,11.10
2022-11-20T00:05:01.904Z,11.90
2022-11-20T00:07:32.585Z,10.70
2022-11-20T00:10:03.458Z,10.90
2022-11-20T00:12:34.185Z,10.80
2022-11-20T00:15:05.775Z,12.30
2022-11-20T00:17:36.482Z,9.00
2022-11-20T00:20:08.903Z,10.70
2022-11-20T00:22:39.693Z,11.00
2022-11-20T00:25:11.220Z,7.80
2022-11-20T00:27:41.991Z,6.70
2022-11-20T00:30:15.144Z,7.90
2022-11-20T00:32:46.100Z,7.20
2022-11-20T00:35:16.863Z,8.10
2022-11-20T00:37:47.481Z,6.90
2022-11-20T00:40:18.419Z,9.20
2022-11-20T00:42:49.113Z,12.30
2022-11-20T00:45:19.746Z,11.10
2022-11-20T00:47:50.356Z,11.30
2022-11-20T00:50:21.110Z,11.00
2022-11-20T00:52:51.815Z,7.90
2022-11-20T00:55:22.602Z,9.30
2022-11-20T00:57:53.260Z,9.50
2022-11-20T01:00:23.986Z,9.10
2022-11-20T01:02:54.644Z,9.70
2022-11-20T01:05:25.325Z,8.90
2022-11-20T01:07:55.958Z,8.10
2022-11-20T01:10:26.905Z,6.40
2022-11-20T01:13:11.596Z,3.60
2022-11-20T01:15:42.689Z,6.40
2022-11-20T01:18:13.329Z,9.20
2022-11-20T01:20:44.052Z,11.90
2022-11-20T01:23:14.658Z,11.50
2022-11-20T01:25:45.386Z,10.90
2022-11-20T01:28:16.108Z,9.70
2022-11-20T01:30:46.843Z,10.70
2022-11-20T01:33:17.545Z,8.30
2022-11-20T01:35:48.260Z,8.10
2022-11-20T01:38:21.092Z,4.50
2022-11-20T01:40:58.883Z,7.40
2022-11-20T01:43:29.957Z,4.70
2022-11-20T01:46:17.364Z,7.20
2022-11-20T01:48:55.585Z,6.90
2022-11-20T01:51:31.625Z,9.50
2022-11-20T01:54:07.597Z,10.40
2022-11-20T01:56:43.722Z,9.70
2022-11-20T01:59:17.540Z,8.80
2022-11-20T02:01:49.075Z,5.80
2022-11-20T02:04:20.435Z,9.20
2022-11-20T02:06:54.119Z,12.60
2022-11-20T02:09:24.861Z,14.80
2022-11-20T02:11:56.161Z,11.40
2022-11-20T02:14:27.500Z,9.80
2022-11-20T02:16:59.452Z,8.40
2022-11-20T02:19:32.433Z,8.30
2022-11-20T02:22:10.285Z,7.90
2022-11-20T02:24:42.004Z,6.60
2022-11-20T02:27:14.415Z,9.80
2022-11-20T02:29:50.363Z,8.40
2022-11-20T02:32:26.361Z,10.20
2022-11-20T02:34:57.812Z,8.80
2022-11-20T02:37:35.681Z,5.30
2022-11-20T02:40:07.911Z,9.70
2022-11-20T02:42:39.101Z,7.10
2022-11-20T02:45:11.646Z,9.00
2022-11-20T02:47:42.476Z,4.50
2022-11-20T02:50:13.538Z,7.10
2022-11-20T02:52:44.611Z,4.90
2022-11-20T02:55:15.431Z,9.60
2022-11-20T02:57:46.199Z,10.20
2022-11-20T03:00:17.859Z,8.60
2022-11-20T03:02:48.646Z,8.60
2022-11-20T03:05:19.638Z,8.70
2022-11-20T03:07:50.523Z,8.30
2022-11-20T03:10:21.151Z,8.50
2022-11-20T03:12:57.228Z,8.30
2022-11-20T03:15:27.932Z,8.50
2022-11-20T03:17:58.777Z,8.40
2022-11-20T03:20:29.519Z,7.30
2022-11-20T03:23:00.282Z,6.80
2022-11-20T03:25:31.329Z,6.30
2022-11-20T03:28:02.199Z,7.10
2022-11-20T03:30:32.994Z,5.60
2022-11-20T03:33:03.690Z,7.40
2022-11-20T03:35:34.318Z,5.40
2022-11-20T03:38:05.061Z,11.40
2022-11-20T03:40:37.632Z,9.40
2022-11-20T03:43:08.300Z,9.70
2022-11-20T03:45:39.035Z,9.80
2022-11-20T03:48:10.195Z,9.80
2022-11-20T03:50:40.817Z,9.90
2022-11-20T03:53:12.010Z,9.70
2022-11-20T03:55:42.702Z,9.50
2022-11-20T03:58:14.473Z,7.70
2022-11-20T04:00:45.428Z,7.90
2022-11-20T04:03:16.206Z,7.60
2022-11-20T04:05:46.961Z,8.20
2022-11-20T04:08:17.683Z,7.10
2022-11-20T04:10:48.699Z,6.80
2022-11-20T04:13:19.347Z,6.80
2022-11-20T04:15:50.050Z,6.90
2022-11-20T04:18:20.763Z,9.30
2022-11-20T04:20:51.426Z,11.40
2022-11-20T04:23:25.873Z,11.10
2022-11-20T04:26:05.228Z,9.20
2022-11-20T04:28:36.114Z,8.00
2022-11-20T04:31:08.988Z,8.80
2022-11-20T04:33:40.312Z,8.00
2022-11-20T04:36:15.682Z,7.50
2022-11-20T04:38:46.935Z,4.30
2022-11-20T04:41:20.061Z,7.40
2022-11-20T04:43:51.999Z,5.50
2022-11-20T04:46:23.286Z,6.80
2022-11-20T04:48:54.293Z,7.00
2022-11-20T04:51:25.579Z,6.10
2022-11-20T04:53:56.173Z,5.90
2022-11-20T04:56:27.069Z,11.20
2022-11-20T04:58:57.750Z,11.00
2022-11-20T05:01:28.405Z,8.10
2022-11-20T05:03:59.018Z,9.20
2022-11-20T05:06:29.709Z,8.10
2022-11-20T05:09:00.975Z,5.20
2022-11-20T05:11:31.611Z,3.70
2022-11-20T05:14:03.038Z,2.30
2022-11-20T05:16:36.193Z,7.00
2022-11-20T05:19:06.758Z,7.50
2022-11-20T05:21:37.472Z,6.60
2022-11-20T05:24:09.094Z,5.00
2022-11-20T05:26:39.814Z,3.60
2022-11-20T05:29:11.399Z,11.10
2022-11-20T05:31:42.862Z,7.50
2022-11-20T05:34:13.492Z,9.10
2022-11-20T05:36:44.282Z,8.20
2022-11-20T05:39:15.187Z,7.90
2022-11-20T05:41:45.853Z,8.50
2022-11-20T05:44:16.999Z,3.70
2022-11-20T05:46:47.646Z,3.90
2022-11-20T05:49:18.317Z,6.30
2022-11-20T05:51:49.128Z,6.60
2022-11-20T05:54:20.075Z,6.00
2022-11-20T05:56:50.776Z,5.60
2022-11-20T05:59:21.752Z,6.10
2022-11-20T06:01:52.717Z,6.30
2022-11-20T06:04:23.297Z,5.20
2022-11-20T06:06:53.882Z,12.10
2022-11-20T06:09:24.536Z,10.90
2022-11-20T06:11:55.159Z,8.20
2022-11-20T06:14:25.874Z,9.10
2022-11-20T06:16:56.611Z,8.10
2022-11-20T06:19:27.177Z,7.90
2022-11-20T06:21:57.770Z,8.80
2022-11-20T06:24:28.487Z,8.30
2022-11-20T06:26:59.263Z,4.90
2022-11-20T06:29:33.732Z,10.10
2022-11-20T06:32:05.204Z,9.00
2022-11-20T06:34:35.898Z,9.30
2022-11-20T06:37:06.701Z,8.30
2022-11-20T06:39:37.346Z,6.00
2022-11-20T06:42:08.074Z,3.60
2022-11-20T06:44:38.654Z,8.90
2022-11-20T06:47:09.436Z,7.20
2022-11-20T06:49:40.334Z,6.30
2022-11-20T06:52:10.934Z,5.80
2022-11-20T06:54:41.520Z,6.20
2022-11-20T06:57:12.180Z,5.60
2022-11-20T06:59:42.842Z,5.30
2022-11-20T07:02:14.878Z,11.20
2022-11-20T07:04:45.483Z,11.70
2022-11-20T07:07:16.326Z,10.00
2022-11-20T07:09:47.078Z,9.60
2022-11-20T07:12:17.784Z,9.50
2022-11-20T07:14:48.342Z,10.20
2022-11-20T07:17:19.092Z,7.90
2022-11-20T07:19:49.824Z,7.60
2022-11-20T07:22:22.744Z,9.20
2022-11-20T07:24:53.577Z,7.20
2022-11-20T07:27:24.293Z,7.60
2022-11-20T07:29:55.301Z,6.90
2022-11-20T07:32:26.395Z,7.60
2022-11-20T07:34:57.123Z,9.50
2022-11-20T07:37:27.721Z,10.30
2022-11-20T07:39:58.502Z,10.30
2022-11-20T07:42:29.127Z,10.20
2022-11-20T07:45:00.519Z,9.80
2022-11-20T07:47:31.389Z,8.40
2022-11-20T07:50:02.077Z,8.60
2022-11-20T07:52:32.772Z,10.10
2022-11-20T07:55:03.535Z,7.80
2022-11-20T07:57:34.339Z,7.90
2022-11-20T08:00:06.225Z,9.60
2022-11-20T08:02:56.892Z,9.80
2022-11-20T08:05:27.614Z,8.30
2022-11-20T08:07:58.254Z,8.90
2022-11-20T08:10:29.161Z,9.40
2022-11-20T08:13:17.802Z,13.80
2022-11-20T08:15:52.739Z,11.60
2022-11-20T08:18:31.323Z,12.10
2022-11-20T08:23:34.052Z,11.80
2022-11-20T08:26:04.771Z,11.20
2022-11-20T08:28:35.385Z,11.20
2022-11-20T08:31:07.162Z,10.50
2022-11-20T08:33:38.008Z,11.80
2022-11-20T08:36:10.267Z,11.40
2022-11-20T08:38:40.980Z,9.90
2022-11-20T08:41:27.919Z,9.20
2022-11-20T08:44:00.626Z,10.40
2022-11-20T08:46:36.455Z,11.30
2022-11-20T08:49:08.026Z,3.70
2022-11-20T08:51:39.599Z,12.80
2022-11-20T08:54:10.712Z,13.10
2022-11-20T08:56:41.440Z,11.60
2022-11-20T08:59:50.915Z,12.70
2022-11-20T09:02:05.775Z,13.30
2022-11-20T09:04:36.317Z,11.20
2022-11-20T09:07:07.138Z,12.50
2022-11-20T09:09:37.884Z,10.50
2022-11-20T09:12:09.082Z,12.10
2022-11-20T09:14:39.726Z,13.20
2022-11-20T09:17:14.358Z,11.50
2022-11-20T09:19:45.324Z,10.90
2022-11-20T09:22:17.395Z,13.10
2022-11-20T09:24:48.087Z,9.70
2022-11-20T09:27:22.566Z,12.00
2022-11-20T09:29:53.235Z,12.20
2022-11-20T09:32:23.930Z,9.90
2022-11-20T09:34:54.670Z,9.90
2022-11-20T09:37:25.916Z,11.40
2022-11-20T09:39:56.765Z,10.30
2022-11-20T09:42:43.453Z,8.70
2022-11-20T09:45:30.137Z,10.50
2022-11-20T09:48:11.014Z,9.70
2022-11-20T09:51:06.103Z,10.60
2022-11-20T09:53:48.493Z,7.50
2022-11-20T09:56:22.610Z,10.10
2022-11-20T09:58:57.245Z,9.90
2022-11-20T10:01:32.850Z,10.70
2022-11-20T10:04:08.185Z,10.40
2022-11-20T10:06:59.740Z,9.60
2022-11-20T10:09:46.066Z,8.10
2022-11-20T10:12:25.022Z,8.90
2022-11-20T10:15:12.574Z,9.40
2022-11-20T10:18:15.816Z,7.40
2022-11-20T10:20:54.060Z,7.00
2022-11-20T10:23:52.923Z,8.80
2022-11-20T10:26:32.074Z,9.10
2022-11-20T10:31:46.916Z,7.20
2022-11-20T10:34:24.760Z,8.00
2022-11-20T10:37:00.447Z,6.10
2022-11-20T10:39:43.701Z,8.70
2022-11-20T10:42:26.586Z,7.00
2022-11-20T10:45:06.788Z,7.80
2022-11-20T10:47:37.952Z,6.90
2022-11-20T10:50:21.858Z,7.50
2022-11-20T10:53:07.311Z,5.80
2022-11-20T10:55:48.077Z,7.30
2022-11-20T10:58:31.978Z,8.60
2022-11-20T11:01:15.643Z,6.80
2022-11-20T11:03:46.811Z,6.40
2022-11-20T11:06:26.365Z,5.30
2022-11-20T11:08:58.858Z,6.30
2022-11-20T11:11:34.013Z,6.80
2022-11-20T11:14:15.886Z,5.90
2022-11-20T11:16:58.198Z,5.30
2022-11-20T11:19:30.105Z,6.90
2022-11-20T11:22:01.588Z,7.20
2022-11-20T11:24:42.588Z,7.60
2022-11-20T11:27:18.868Z,6.60
2022-11-20T11:29:50.544Z,5.90
2022-11-20T11:32:23.141Z,5.40
2022-11-20T11:35:04.915Z,5.60
2022-11-20T11:37:43.836Z,5.10
2022-11-20T11:40:23.795Z,4.60
2022-11-20T11:42:59.873Z,6.10
2022-11-20T11:45:30.855Z,4.80
2022-11-20T11:48:05.901Z,4.10
2022-11-20T11:50:39.354Z,4.20
2022-11-20T11:53:15.670Z,4.30
2022-11-20T11:55:52.755Z,6.00
2022-11-20T11:58:44.057Z,3.60
2022-11-20T12:01:30.736Z,2.70
2022-11-20T12:04:13.909Z,4.10
2022-11-20T12:06:50.494Z,2.40
2022-11-20T12:09:26.415Z,2.50
2022-11-20T12:12:06.590Z,2.50
2022-11-20T12:14:39.384Z,4.60
2022-11-20T12:17:15.669Z,3.70
2022-11-20T12:19:46.380Z,4.70
2022-11-20T12:22:25.908Z,3.50
2022-11-20T12:25:04.328Z,5.50
2022-11-20T12:28:16.807Z,5.00
2022-11-20T12:30:58.293Z,3.20
2022-11-20T12:33:56.833Z,2.00
2022-11-20T12:36:35.558Z,4.50
2022-11-20T12:39:23.731Z,3.00
2022-11-20T12:42:36.586Z,1.90
2022-11-20T12:45:21.653Z,3.00
2022-11-20T12:48:05.001Z,2.40
2022-11-20T12:51:07.976Z,3.50
2022-11-20T12:53:48.490Z,2.40
2022-11-20T12:56:30.031Z,3.50
2022-11-20T12:59:21.158Z,4.00
2022-11-20T13:01:57.772Z,2.70
2022-11-20T13:05:00.430Z,2.30
2022-11-20T13:07:32.619Z,2.10
2022-11-20T13:10:11.584Z,3.60
2022-11-20T13:12:52.079Z,5.40
2022-11-20T13:15:42.327Z,2.30
2022-11-20T13:18:14.940Z,3.50
2022-11-20T13:20:50.713Z,5.30
2022-11-20T13:23:32.457Z,3.50
2022-11-20T13:26:22.543Z,4.40
2022-11-20T13:29:07.936Z,5.50
2022-11-20T13:34:14.538Z,5.90
2022-11-20T13:36:54.943Z,4.50
2022-11-20T13:39:33.209Z,5.10
2022-11-20T13:42:23.591Z,3.00
2022-11-20T13:45:02.592Z,4.20
2022-11-20T13:47:33.664Z,5.30
2022-11-20T13:50:13.368Z,4.50
2022-11-20T13:52:58.144Z,3.60
2022-11-20T13:55:42.574Z,4.90
2022-11-20T13:58:33.494Z,5.20
2022-11-20T14:01:10.810Z,4.60
2022-11-20T14:04:05.194Z,4.50
2022-11-20T14:06:41.227Z,4.00
2022-11-20T14:09:26.788Z,3.30
2022-11-20T14:11:57.853Z,4.00
2022-11-20T14:14:30.338Z,3.30
2022-11-20T14:17:19.357Z,4.60
2022-11-20T14:19:52.197Z,4.10
2022-11-20T14:22:25.660Z,3.30
2022-11-20T14:25:19.951Z,5.60
2022-11-20T14:27:55.658Z,3.80
2022-11-20T14:30:29.860Z,4.90
2022-11-20T14:33:04.244Z,5.90
2022-11-20T14:35:39.728Z,6.00
2022-11-20T14:38:16.400Z,4.50
2022-11-20T14:40:47.296Z,4.10
2022-11-20T14:43:25.190Z,3.50
2022-11-20T14:46:00.414Z,4.00
2022-11-20T14:48:34.928Z,4.60
2022-11-20T14:51:05.733Z,5.60
2022-11-20T14:53:36.295Z,5.00
2022-11-20T14:56:07.443Z,6.70
2022-11-20T14:58:38.067Z,7.40
2022-11-20T15:01:14.079Z,5.40
2022-11-20T15:03:45.042Z,5.70
2022-11-20T15:06:16.115Z,6.90
2022-11-20T15:08:55.888Z,5.30
2022-11-20T15:11:32.214Z,6.40
2022-11-20T15:14:09.730Z,5.60
2022-11-20T15:16:44.986Z,5.30
2022-11-20T15:19:24.041Z,5.00
2022-11-20T15:21:55.727Z,5.10
2022-11-20T15:24:30.987Z,4.90
2022-11-20T15:27:06.645Z,4.90
2022-11-20T15:29:39.528Z,6.00
2022-11-20T15:32:13.566Z,5.30
2022-11-20T15:34:51.075Z,6.30
2022-11-20T15:37:29.735Z,12.00
2022-11-20T15:40:02.032Z,9.20
2022-11-20T15:42:42.022Z,9.70
2022-11-20T15:45:25.030Z,8.00
2022-11-20T15:48:05.879Z,7.80
2022-11-20T15:50:49.383Z,8.60
2022-11-20T15:53:26.116Z,9.30
2022-11-20T15:55:59.239Z,7.10
2022-11-20T15:58:32.436Z,6.50
2022-11-20T16:01:05.856Z,6.60
2022-11-20T16:03:37.417Z,7.60
2022-11-20T16:06:10.425Z,6.10
2022-11-20T16:08:43.867Z,6.40
2022-11-20T16:11:21.568Z,5.00
2022-11-20T16:14:09.869Z,5.70
2022-11-20T16:16:44.122Z,5.80
2022-11-20T16:19:19.094Z,5.40
2022-11-20T16:21:49.955Z,8.70
2022-11-20T16:24:21.695Z,8.50
2022-11-20T16:27:01.778Z,7.00
2022-11-20T16:29:35.359Z,7.90
2022-11-20T16:32:07.567Z,7.40
2022-11-20T16:34:40.525Z,5.40
2022-11-20T16:37:11.493Z,6.90
2022-11-20T16:39:44.777Z,7.10
2022-11-20T16:44:47.365Z,5.40
2022-11-20T16:47:18.016Z,6.20
2022-11-20T16:49:48.687Z,6.70
2022-11-20T16:52:19.360Z,6.20
2022-11-20T16:54:49.991Z,5.20
2022-11-20T16:57:20.614Z,5.30
2022-11-20T16:59:53.606Z,8.80
2022-11-20T17:02:26.015Z,7.00
2022-11-20T17:04:56.738Z,8.30
2022-11-20T17:07:27.506Z,8.20
2022-11-20T17:09:58.244Z,8.50
2022-11-20T17:12:28.947Z,8.00
2022-11-20T17:14:59.496Z,8.30
2022-11-20T17:17:30.431Z,8.10
2022-11-20T17:20:01.015Z,9.00
2022-11-20T17:22:32.443Z,8.00
2022-11-20T17:25:03.134Z,8.80
2022-11-20T17:27:34.028Z,7.90
2022-11-20T17:30:04.905Z,6.70
2022-11-20T17:32:36.574Z,6.80
2022-11-20T17:35:08.680Z,7.10
2022-11-20T17:37:39.590Z,8.70
2022-11-20T17:40:12.001Z,9.90
2022-11-20T17:42:43.089Z,8.80
2022-11-20T17:45:14.008Z,8.80
2022-11-20T17:47:46.461Z,8.60
2022-11-20T17:50:17.298Z,7.40
2022-11-20T17:52:48.105Z,7.40
2022-11-20T17:55:21.189Z,8.80
2022-11-20T17:57:56.832Z,6.70
2022-11-20T18:00:28.402Z,6.30
2022-11-20T18:02:59.585Z,7.90
2022-11-20T18:05:30.609Z,4.20
2022-11-20T18:08:01.214Z,5.20
2022-11-20T18:10:33.512Z,8.00
2022-11-20T18:13:04.394Z,7.20
2022-11-20T18:15:35.039Z,7.20
2022-11-20T18:18:06.304Z,7.90
2022-11-20T18:20:40.004Z,9.50
2022-11-20T18:23:11.048Z,8.70
2022-11-20T18:25:43.491Z,7.60
2022-11-20T18:28:27.586Z,7.50
2022-11-20T18:31:05.669Z,6.60
2022-11-20T18:33:37.524Z,5.20
2022-11-20T18:36:14.485Z,5.10
2022-11-20T18:38:52.112Z,6.30
2022-11-20T18:41:45.071Z,5.20
2022-11-20T18:44:35.636Z,6.10
2022-11-20T18:47:14.252Z,5.40
2022-11-20T18:52:16.908Z,1.70
2022-11-20T18:54:47.622Z,4.10
2022-11-20T18:57:19.438Z,9.20
2022-11-20T18:59:50.158Z,7.70
2022-11-20T19:02:22.052Z,7.30
2022-11-20T19:04:52.809Z,8.50
2022-11-20T19:07:24.090Z,7.50
2022-11-20T19:09:59.556Z,7.60
2022-11-20T19:12:33.148Z,8.50
2022-11-20T19:15:04.064Z,4.60
2022-11-20T19:17:35.912Z,7.50
2022-11-20T19:20:08.242Z,8.10
2022-11-20T19:22:38.914Z,6.60
2022-11-20T19:25:11.815Z,6.70
2022-11-20T19:27:42.623Z,7.10
2022-11-20T19:30:15.455Z,6.50
2022-11-20T19:32:46.281Z,11.00
2022-11-20T19:35:17.227Z,9.40
2022-11-20T19:37:47.968Z,9.80
2022-11-20T19:40:18.676Z,9.30
2022-11-20T19:42:49.291Z,7.40
2022-11-20T19:45:20.045Z,7.10
2022-11-20T19:48:07.231Z,7.60
2022-11-20T19:50:38.703Z,7.30
2022-11-20T19:53:11.365Z,8.80
2022-11-20T19:55:43.143Z,6.60
2022-11-20T19:58:13.884Z,7.70
2022-11-20T20:00:44.602Z,9.10
2022-11-20T20:03:15.314Z,7.60
2022-11-20T20:05:46.335Z,12.30
2022-11-20T20:08:17.433Z,9.90
2022-11-20T20:10:47.978Z,9.60
2022-11-20T20:13:18.719Z,10.30
2022-11-20T20:15:49.843Z,9.20
2022-11-20T20:18:20.646Z,11.30
2022-11-20T20:20:51.455Z,8.10
2022-11-20T20:23:22.180Z,7.10
2022-11-20T20:25:52.900Z,6.70
2022-11-20T20:28:23.793Z,8.20
2022-11-20T20:30:54.725Z,7.10
2022-11-20T20:33:25.485Z,4.20
2022-11-20T20:35:56.327Z,13.10
2022-11-20T20:38:27.032Z,11.50
2022-11-20T20:40:57.629Z,10.90
2022-11-20T20:43:29.281Z,9.10
2022-11-20T20:46:00.185Z,10.20
2022-11-20T20:48:30.862Z,9.90
2022-11-20T20:51:03.700Z,9.70
2022-11-20T20:53:34.437Z,10.20
2022-11-20T20:56:08.153Z,9.80
2022-11-20T20:58:38.961Z,11.10
2022-11-20T21:01:11.268Z,11.20
2022-11-20T21:03:42.533Z,8.40
2022-11-20T21:06:13.846Z,11.00
2022-11-20T21:08:44.803Z,9.70
2022-11-20T21:11:17.464Z,15.80
2022-11-20T21:13:49.252Z,12.50
2022-11-20T21:16:22.399Z,12.00
2022-11-20T21:18:53.366Z,12.20
2022-11-20T21:21:41.922Z,12.40
2022-11-20T21:24:12.840Z,10.20
2022-11-20T21:26:43.682Z,9.90
2022-11-20T21:29:14.561Z,12.20
2022-11-20T21:31:45.564Z,12.60
2022-11-20T21:34:17.319Z,12.10
2022-11-20T21:36:48.464Z,10.20
2022-11-20T21:39:20.469Z,9.20
2022-11-20T21:41:51.241Z,13.40
2022-11-20T21:44:37.122Z,10.90
2022-11-20T21:47:08.803Z,9.90
2022-11-20T21:49:41.282Z,9.10
2022-11-20T21:52:11.934Z,8.90
2022-11-20T21:54:42.630Z,11.20
2022-11-20T21:57:13.373Z,11.40
2022-11-20T21:59:44.203Z,11.10
2022-11-20T22:02:15.470Z,10.90
2022-11-20T22:04:46.406Z,10.90
2022-11-20T22:07:17.131Z,9.50
2022-11-20T22:09:48.627Z,11.10
2022-11-20T22:12:19.341Z,9.50
2022-11-20T22:14:49.982Z,9.60
2022-11-20T22:17:40.693Z,11.50
2022-11-20T22:20:13.117Z,9.80
2022-11-20T22:22:43.906Z,11.40
2022-11-20T22:25:14.580Z,10.90
2022-11-20T22:27:46.922Z,11.40
2022-11-20T22:30:18.035Z,10.30
2022-11-20T22:32:48.740Z,8.60
2022-11-20T22:35:19.478Z,9.70
2022-11-20T22:37:52.646Z,10.50
2022-11-20T22:40:23.391Z,11.10
2022-11-20T22:42:54.125Z,10.30
2022-11-20T22:45:24.755Z,10.00
2022-11-20T22:47:55.531Z,9.20
2022-11-20T22:50:26.355Z,12.40
2022-11-20T22:52:57.189Z,13.20
2022-11-20T22:55:27.909Z,12.10
2022-11-20T22:57:58.929Z,12.10
2022-11-20T23:00:29.635Z,10.10
2022-11-20T23:03:00.422Z,11.50
2022-11-20T23:05:33.229Z,10.60
2022-11-20T23:08:03.926Z,10.50
2022-11-20T23:10:34.626Z,9.20
2022-11-20T23:13:05.507Z,10.20
2022-11-20T23:15:37.183Z,10.30
2022-11-20T23:18:07.952Z,9.30
2022-11-20T23:20:39.577Z,9.70
2022-11-20T23:23:10.253Z,9.70
2022-11-20T23:25:40.916Z,15.20
2022-11-20T23:28:11.905Z,12.40
2022-11-20T23:30:42.682Z,14.20
2022-11-20T23:33:13.281Z,12.90
2022-11-20T23:35:47.558Z,10.40
2022-11-20T23:38:18.323Z,11.40
2022-11-20T23:40:51.369Z,9.30
2022-11-20T23:43:23.796Z,11.50
2022-11-20T23:46:01.965Z,10.20
2022-11-20T23:48:37.615Z,8.90
2022-11-20T23:51:09.304Z,9.20
2022-11-20T23:53:40.045Z,15.80
2022-11-20T23:56:12.154Z,14.10
2022-11-20T23:58:43.387Z,13.30
